createdAt,value
2022-12-15T00:00:03.489Z,75.90
2022-12-15T00:02:49.971Z,75.80
2022-12-15T00:05:36.947Z,75.80
2022-12-15T00:08:26.455Z,76.40
2022-12-15T00:11:11.977Z,75.70
2022-12-15T00:13:57.480Z,75.90
2022-12-15T00:16:42.960Z,75.80
2022-12-15T00:19:28.424Z,75.90
2022-12-15T00:22:15.302Z,75.90
2022-12-15T00:25:00.722Z,75.90
2022-12-15T00:27:46.195Z,76.00
2022-12-15T00:30:31.949Z,75.90
2022-12-15T00:33:17.506Z,75.90
2022-12-15T00:36:03.080Z,75.90
2022-12-15T00:38:42.436Z,75.90
2022-12-15T00:41:10.753Z,75.90
2022-12-15T00:43:38.670Z,75.90
2022-12-15T00:46:24.923Z,75.90
2022-12-15T00:48:53.015Z,75.90
2022-12-15T00:51:20.702Z,75.90
2022-12-15T00:54:07.947Z,76.70
2022-12-15T00:56:54.938Z,75.90
2022-12-15T00:59:40.409Z,75.90
2022-12-15T01:02:25.975Z,76.00
2022-12-15T01:05:11.213Z,75.90
2022-12-15T01:07:56.709Z,76.00
2022-12-15T01:10:43.436Z,76.00
2022-12-15T01:13:32.287Z,75.90
2022-12-15T01:16:17.835Z,75.80
2022-12-15T01:19:03.315Z,76.00
2022-12-15T01:21:32.708Z,76.00
2022-12-15T01:24:00.519Z,75.90
2022-12-15T01:26:29.621Z,76.10
2022-12-15T01:28:57.651Z,75.90
2022-12-15T01:31:25.517Z,76.00
2022-12-15T01:33:54.677Z,76.00
2022-12-15T01:36:22.468Z,75.90
2022-12-15T01:38:54.129Z,76.00
2022-12-15T01:41:21.652Z,76.10
2022-12-15T01:43:50.819Z,76.00
2022-12-15T01:46:22.078Z,75.90
2022-12-15T01:48:55.486Z,75.90
2022-12-15T01:51:27.977Z,75.90
2022-12-15T01:54:02.269Z,75.90
2022-12-15T01:56:37.419Z,75.80
2022-12-15T01:59:12.022Z,76.00
2022-12-15T02:01:40.157Z,75.90
2022-12-15T02:04:11.670Z,76.10
2022-12-15T02:06:39.451Z,76.10
2022-12-15T02:09:07.423Z,76.20
2022-12-15T02:11:56.978Z,76.20
2022-12-15T02:14:41.273Z,75.80
2022-12-15T02:17:23.364Z,75.80
2022-12-15T02:20:23.241Z,75.90
2022-12-15T02:23:12.423Z,75.80
2022-12-15T02:26:01.624Z,75.80
2022-12-15T02:28:40.221Z,75.90
2022-12-15T02:31:31.604Z,76.00
2022-12-15T02:34:06.703Z,76.10
2022-12-15T02:36:38.136Z,76.10
2022-12-15T02:39:06.918Z,76.00
2022-12-15T02:41:39.659Z,76.10
2022-12-15T02:44:12.458Z,75.90
2022-12-15T02:46:55.536Z,76.00
2022-12-15T02:49:32.284Z,75.90
2022-12-15T02:52:11.688Z,75.90
2022-12-15T02:54:59.266Z,75.80
2022-12-15T02:57:35.301Z,75.70
2022-12-15T03:00:07.925Z,75.90
2022-12-15T03:02:40.242Z,75.90
2022-12-15T03:05:09.500Z,76.00
2022-12-15T03:07:37.304Z,76.10
2022-12-15T03:10:07.287Z,76.20
2022-12-15T03:12:35.084Z,76.00
2022-12-15T03:15:02.928Z,76.10
2022-12-15T03:17:30.737Z,76.10
2022-12-15T03:19:59.889Z,76.20
2022-12-15T03:22:27.686Z,76.00
2022-12-15T03:24:55.510Z,76.20
2022-12-15T03:27:23.503Z,76.20
2022-12-15T03:29:51.309Z,76.20
2022-12-15T03:32:19.231Z,76.10
2022-12-15T03:34:49.130Z,76.10
2022-12-15T03:37:18.254Z,76.20
2022-12-15T03:39:46.156Z,76.10
2022-12-15T03:42:13.973Z,76.10
2022-12-15T03:44:41.757Z,76.10
2022-12-15T03:47:09.550Z,76.20
2022-12-15T03:49:37.342Z,76.20
2022-12-15T03:52:05.268Z,76.20
2022-12-15T03:54:34.397Z,76.20
2022-12-15T03:57:03.229Z,76.00
2022-12-15T03:59:31.013Z,76.10
2022-12-15T04:01:58.895Z,76.10
2022-12-15T04:04:26.821Z,76.10
2022-12-15T04:06:54.617Z,76.20
2022-12-15T04:09:22.399Z,76.20
2022-12-15T04:11:51.527Z,76.20
2022-12-15T04:14:19.334Z,76.10
2022-12-15T04:16:47.173Z,76.20
2022-12-15T04:19:32.962Z,76.20
2022-12-15T04:22:02.453Z,76.20
2022-12-15T04:24:47.897Z,76.20
2022-12-15T04:27:34.636Z,76.10
2022-12-15T04:30:20.099Z,76.00
2022-12-15T04:33:05.507Z,76.00
2022-12-15T04:35:52.457Z,75.90
2022-12-15T04:38:45.493Z,75.60
2022-12-15T04:41:37.683Z,75.50
2022-12-15T04:44:25.057Z,75.20
2022-12-15T04:47:10.373Z,75.00
2022-12-15T04:49:55.833Z,75.00
2022-12-15T04:52:41.366Z,74.90
2022-12-15T04:55:27.194Z,74.70
2022-12-15T04:58:12.817Z,74.40
2022-12-15T05:00:59.584Z,74.20
2022-12-15T05:03:44.778Z,73.70
2022-12-15T05:06:30.225Z,73.60
2022-12-15T05:09:15.746Z,73.40
2022-12-15T05:12:01.173Z,73.20
2022-12-15T05:14:46.508Z,72.90
2022-12-15T05:17:41.332Z,72.70
2022-12-15T05:20:28.005Z,72.70
2022-12-15T05:23:14.245Z,73.00
2022-12-15T05:25:59.712Z,73.10
2022-12-15T05:28:45.442Z,73.20
2022-12-15T05:31:31.448Z,73.20
2022-12-15T05:34:05.214Z,73.30
2022-12-15T05:36:33.958Z,73.10
2022-12-15T05:39:01.779Z,73.10
2022-12-15T05:41:29.609Z,73.10
2022-12-15T05:43:57.458Z,73.10
2022-12-15T05:46:25.632Z,72.90
2022-12-15T05:48:53.485Z,72.80
2022-12-15T05:51:22.643Z,72.50
2022-12-15T05:53:50.581Z,72.40
2022-12-15T05:56:18.434Z,72.50
2022-12-15T05:58:46.241Z,72.40
2022-12-15T06:01:16.998Z,72.50
2022-12-15T06:03:45.414Z,72.30
2022-12-15T06:06:14.224Z,72.30
2022-12-15T06:08:44.309Z,72.30
2022-12-15T06:11:13.153Z,72.10
2022-12-15T06:13:41.453Z,72.10
2022-12-15T06:16:13.622Z,72.00
2022-12-15T06:18:44.167Z,71.80
2022-12-15T06:21:20.458Z,71.80
2022-12-15T06:23:49.808Z,71.60
2022-12-15T06:26:23.312Z,71.50
2022-12-15T06:28:51.726Z,71.50
2022-12-15T06:31:22.631Z,71.50
2022-12-15T06:33:55.975Z,71.20
2022-12-15T06:36:28.419Z,71.20
2022-12-15T06:39:00.369Z,71.10
2022-12-15T06:41:30.762Z,70.90
2022-12-15T06:43:59.781Z,70.90
2022-12-15T06:46:29.484Z,70.80
2022-12-15T06:48:57.631Z,70.60
2022-12-15T06:51:26.427Z,70.70
2022-12-15T06:53:55.375Z,70.50
2022-12-15T06:56:32.546Z,70.40
2022-12-15T06:59:02.154Z,70.20
2022-12-15T07:01:30.996Z,70.20
2022-12-15T07:04:01.264Z,70.20
2022-12-15T07:06:34.085Z,70.10
2022-12-15T07:09:01.923Z,69.90
2022-12-15T07:11:31.102Z,69.90
2022-12-15T07:13:58.913Z,69.80
2022-12-15T07:16:26.788Z,69.80
2022-12-15T07:18:54.737Z,69.80
2022-12-15T07:21:22.561Z,69.80
2022-12-15T07:23:56.047Z,69.80
2022-12-15T07:26:25.048Z,69.80
2022-12-15T07:28:54.887Z,69.80
2022-12-15T07:31:24.739Z,69.60
2022-12-15T07:33:54.322Z,69.70
2022-12-15T07:36:22.195Z,69.80
2022-12-15T07:38:52.335Z,69.80
2022-12-15T07:41:20.928Z,69.70
2022-12-15T07:43:48.966Z,70.40
2022-12-15T07:46:19.588Z,69.60
2022-12-15T07:48:50.755Z,69.60
2022-12-15T07:51:20.904Z,69.60
2022-12-15T07:53:49.730Z,69.60
2022-12-15T07:56:18.686Z,69.60
2022-12-15T07:58:47.051Z,69.60
2022-12-15T08:01:16.293Z,69.50
2022-12-15T08:03:46.002Z,69.50
2022-12-15T08:06:15.981Z,69.40
2022-12-15T08:08:50.304Z,69.30
2022-12-15T08:11:20.861Z,69.30
2022-12-15T08:14:06.877Z,69.10
2022-12-15T08:16:37.256Z,69.20
2022-12-15T08:19:08.334Z,69.10
2022-12-15T08:21:36.196Z,69.10
2022-12-15T08:24:04.188Z,69.00
2022-12-15T08:26:32.102Z,69.10
2022-12-15T08:31:52.379Z,68.90
2022-12-15T08:34:22.151Z,68.90
2022-12-15T08:36:50.527Z,68.70
2022-12-15T08:39:18.384Z,68.60
2022-12-15T08:41:46.439Z,68.50
2022-12-15T08:44:16.620Z,68.10
2022-12-15T08:46:44.476Z,67.50
2022-12-15T08:49:15.390Z,67.20
2022-12-15T08:51:50.193Z,66.00
2022-12-15T08:54:19.429Z,66.10
2022-12-15T08:56:47.315Z,65.20
2022-12-15T08:59:15.112Z,65.30
2022-12-15T09:01:43.377Z,65.40
2022-12-15T09:04:11.383Z,65.40
2022-12-15T09:06:39.230Z,65.70
2022-12-15T09:09:12.366Z,65.90
2022-12-15T09:11:40.996Z,65.50
2022-12-15T09:14:08.971Z,66.10
2022-12-15T09:16:36.898Z,66.10
2022-12-15T09:19:05.401Z,66.10
2022-12-15T09:21:33.206Z,66.30
2022-12-15T09:24:02.425Z,66.30
2022-12-15T09:26:33.975Z,66.50
2022-12-15T09:29:02.728Z,66.50
2022-12-15T09:31:32.551Z,66.70
2022-12-15T09:34:01.462Z,66.70
2022-12-15T09:36:32.288Z,66.60
2022-12-15T09:39:02.445Z,66.60
2022-12-15T09:41:34.021Z,66.70
2022-12-15T09:44:04.055Z,66.60
2022-12-15T09:46:44.202Z,66.80
2022-12-15T09:49:26.073Z,66.80
2022-12-15T09:52:03.471Z,66.80
2022-12-15T09:54:35.605Z,67.00
2022-12-15T09:57:12.493Z,67.00
2022-12-15T09:59:51.448Z,66.80
2022-12-15T10:02:43.341Z,66.80
2022-12-15T10:05:17.710Z,66.60
2022-12-15T10:07:50.600Z,66.60
2022-12-15T10:10:25.178Z,66.60
2022-12-15T10:13:01.705Z,66.50
2022-12-15T10:15:37.820Z,66.40
2022-12-15T10:18:12.451Z,66.30
2022-12-15T10:20:40.765Z,66.30
2022-12-15T10:23:13.274Z,66.40
2022-12-15T10:25:47.453Z,66.20
2022-12-15T10:28:58.716Z,66.30
2022-12-15T10:31:35.149Z,66.10
2022-12-15T10:34:11.476Z,66.30
2022-12-15T10:36:45.840Z,66.30
2022-12-15T10:39:17.672Z,66.60
2022-12-15T10:41:45.662Z,67.00
2022-12-15T10:44:31.853Z,67.40
2022-12-15T10:47:10.730Z,67.30
2022-12-15T10:49:38.776Z,67.40
2022-12-15T10:52:06.832Z,67.70
2022-12-15T10:54:44.597Z,68.30
2022-12-15T10:57:17.974Z,68.40
2022-12-15T10:59:45.804Z,68.60
2022-12-15T11:02:36.689Z,69.10
2022-12-15T11:05:07.639Z,69.10
2022-12-15T11:07:39.143Z,69.60
2022-12-15T11:10:17.065Z,69.60
2022-12-15T11:12:58.331Z,69.50
2022-12-15T11:15:41.708Z,70.00
2022-12-15T11:18:37.379Z,69.70
2022-12-15T11:21:10.474Z,70.00
2022-12-15T11:23:50.349Z,70.20
2022-12-15T11:26:27.535Z,70.20
2022-12-15T11:29:01.594Z,70.10
2022-12-15T11:31:35.991Z,70.20
2022-12-15T11:34:11.848Z,70.30
2022-12-15T11:36:56.521Z,70.50
2022-12-15T11:39:37.946Z,70.60
2022-12-15T11:42:12.438Z,70.90
2022-12-15T11:44:49.004Z,71.20
2022-12-15T11:47:26.572Z,71.30
2022-12-15T11:50:10.435Z,71.20
2022-12-15T11:52:53.725Z,71.40
2022-12-15T11:55:35.893Z,71.80
2022-12-15T11:58:24.774Z,72.10
2022-12-15T12:01:01.513Z,72.20
2022-12-15T12:03:40.955Z,72.80
2022-12-15T12:06:14.919Z,73.00
2022-12-15T12:09:09.185Z,73.40
2022-12-15T12:11:43.716Z,73.60
2022-12-15T12:14:20.893Z,74.20
2022-12-15T12:16:56.169Z,74.50
2022-12-15T12:19:29.651Z,75.00
2022-12-15T12:22:03.398Z,74.90
2022-12-15T12:24:36.229Z,74.80
2022-12-15T12:27:09.787Z,74.80
2022-12-15T12:29:45.066Z,74.70
2022-12-15T12:32:25.745Z,74.80
2022-12-15T12:38:01.305Z,74.70
2022-12-15T12:40:43.680Z,74.80
2022-12-15T12:43:17.312Z,74.70
2022-12-15T12:45:50.645Z,74.80
2022-12-15T12:48:27.099Z,74.60
2022-12-15T12:51:13.704Z,74.60
2022-12-15T12:53:42.966Z,74.50
2022-12-15T12:56:34.704Z,74.70
2022-12-15T12:59:08.781Z,74.40
2022-12-15T13:01:38.467Z,74.80
2022-12-15T13:04:09.511Z,74.70
2022-12-15T13:07:01.093Z,74.70
2022-12-15T13:09:41.562Z,74.30
2022-12-15T13:12:50.894Z,74.50
2022-12-15T13:15:32.672Z,74.40
2022-12-15T13:18:06.373Z,74.70
2022-12-15T13:20:36.615Z,74.90
2022-12-15T13:23:41.046Z,74.90
2022-12-15T13:26:20.357Z,74.70
2022-12-15T13:28:52.920Z,74.80
2022-12-15T13:31:44.283Z,74.80
2022-12-15T13:34:24.021Z,75.50
2022-12-15T13:37:02.677Z,74.90
2022-12-15T13:39:36.832Z,74.90
2022-12-15T13:42:34.937Z,74.90
2022-12-15T13:45:37.471Z,74.70
2022-12-15T13:48:26.440Z,74.80
2022-12-15T13:51:10.286Z,74.90
2022-12-15T13:53:43.298Z,75.00
2022-12-15T13:56:27.456Z,75.10
2022-12-15T13:59:01.770Z,74.90
2022-12-15T14:01:33.352Z,75.10
2022-12-15T14:04:07.016Z,75.30
2022-12-15T14:06:44.927Z,75.30
2022-12-15T14:09:16.316Z,75.10
2022-12-15T14:11:53.207Z,75.10
2022-12-15T14:14:43.476Z,75.10
2022-12-15T14:17:15.794Z,75.00
2022-12-15T14:19:45.237Z,74.80
2022-12-15T14:22:27.505Z,74.90
2022-12-15T14:25:02.106Z,74.60
2022-12-15T14:27:33.393Z,74.70
2022-12-15T14:30:22.163Z,74.80
2022-12-15T14:32:54.189Z,74.50
2022-12-15T14:35:28.508Z,74.70
2022-12-15T14:37:59.310Z,74.60
2022-12-15T14:40:29.493Z,74.80
2022-12-15T14:42:57.878Z,74.90
2022-12-15T14:45:30.679Z,74.90
2022-12-15T14:50:51.137Z,75.20
2022-12-15T14:53:21.922Z,75.20
2022-12-15T14:55:49.931Z,75.80
2022-12-15T14:58:31.540Z,75.20
2022-12-15T15:01:02.333Z,75.00
2022-12-15T15:03:10.011Z,74.80
2022-12-15T15:03:37.225Z,75.30
2022-12-15T15:06:08.237Z,75.00
2022-12-15T15:08:42.548Z,75.30
2022-12-15T15:11:24.132Z,76.20
2022-12-15T15:13:56.016Z,75.30
2022-12-15T15:16:25.663Z,75.50
2022-12-15T15:18:55.883Z,75.70
2022-12-15T15:21:26.929Z,75.90
2022-12-15T15:24:02.461Z,75.80
2022-12-15T15:26:31.548Z,75.70
2022-12-15T15:28:59.484Z,76.00
2022-12-15T15:31:40.419Z,76.10
2022-12-15T15:34:09.024Z,75.90
2022-12-15T15:36:39.741Z,76.10
2022-12-15T15:39:15.056Z,76.00
2022-12-15T15:41:42.930Z,75.80
2022-12-15T15:44:14.575Z,76.20
2022-12-15T15:46:48.850Z,76.10
2022-12-15T15:49:20.070Z,75.90
2022-12-15T15:51:48.060Z,76.00
2022-12-15T15:54:18.888Z,76.10
2022-12-15T15:56:46.714Z,75.90
2022-12-15T15:59:16.612Z,76.10
2022-12-15T16:01:47.619Z,76.10
2022-12-15T16:04:15.602Z,75.90
2022-12-15T16:06:47.613Z,76.00
2022-12-15T16:09:17.747Z,76.10
2022-12-15T16:11:47.319Z,76.00
2022-12-15T16:14:18.125Z,76.00
2022-12-15T16:16:48.347Z,76.00
2022-12-15T16:19:16.131Z,76.00
2022-12-15T16:21:44.558Z,76.00
2022-12-15T16:24:16.787Z,76.00
2022-12-15T16:26:48.777Z,75.70
2022-12-15T16:29:18.871Z,75.70
2022-12-15T16:31:48.246Z,75.70
2022-12-15T16:34:17.410Z,75.60
2022-12-15T16:36:45.839Z,75.50
2022-12-15T16:39:26.160Z,75.40
2022-12-15T16:41:55.201Z,75.10
2022-12-15T16:44:23.221Z,75.40
2022-12-15T16:46:52.466Z,75.30
2022-12-15T16:49:20.360Z,75.10
2022-12-15T16:51:51.332Z,75.20
2022-12-15T16:54:23.720Z,75.00
2022-12-15T16:56:53.005Z,74.90
2022-12-15T16:59:32.940Z,75.00
2022-12-15T17:02:04.024Z,74.90
2022-12-15T17:04:32.101Z,75.00
2022-12-15T17:06:59.941Z,75.00
2022-12-15T17:09:27.870Z,75.10
2022-12-15T17:12:03.769Z,75.10
2022-12-15T17:14:32.433Z,74.80
2022-12-15T17:17:00.753Z,75.10
2022-12-15T17:19:29.891Z,75.10
2022-12-15T17:21:58.077Z,75.00
2022-12-15T17:24:25.979Z,75.00
2022-12-15T17:26:53.906Z,75.00
2022-12-15T17:29:23.509Z,75.10
2022-12-15T17:31:51.695Z,74.90
2022-12-15T17:34:28.360Z,75.10
2022-12-15T17:36:59.006Z,74.80
2022-12-15T17:39:27.949Z,74.90
2022-12-15T17:42:01.108Z,75.20
2022-12-15T17:44:33.515Z,75.30
2022-12-15T17:47:02.931Z,75.30
2022-12-15T17:49:35.559Z,75.40
2022-12-15T17:52:09.692Z,75.40
2022-12-15T17:54:37.643Z,75.40
2022-12-15T17:57:05.475Z,75.60
2022-12-15T17:59:33.308Z,75.50
2022-12-15T18:02:01.254Z,75.60
2022-12-15T18:04:29.227Z,75.60
2022-12-15T18:07:01.470Z,75.50
2022-12-15T18:09:31.567Z,75.50
2022-12-15T18:11:59.453Z,75.20
2022-12-15T18:14:28.986Z,75.40
2022-12-15T18:17:07.840Z,75.20
2022-12-15T18:19:35.647Z,75.30
2022-12-15T18:22:03.446Z,75.30
2022-12-15T18:24:33.326Z,75.20
2022-12-15T18:27:01.115Z,75.10
2022-12-15T18:29:28.935Z,75.40
2022-12-15T18:31:56.840Z,75.40
2022-12-15T18:34:24.683Z,75.50
2022-12-15T18:36:52.474Z,75.50
2022-12-15T18:39:23.392Z,75.50
2022-12-15T18:41:54.570Z,75.40
2022-12-15T18:44:25.994Z,75.40
2022-12-15T18:46:55.069Z,75.50
2022-12-15T18:49:23.560Z,75.50
2022-12-15T18:51:52.728Z,75.50
2022-12-15T18:54:22.469Z,75.60
2022-12-15T18:56:52.049Z,75.60
2022-12-15T18:59:22.701Z,75.70
2022-12-15T19:01:50.641Z,75.80
2022-12-15T19:04:18.581Z,75.80
2022-12-15T19:06:46.525Z,75.70
2022-12-15T19:09:16.834Z,75.70
2022-12-15T19:12:17.458Z,75.60
2022-12-15T19:14:48.177Z,75.80
2022-12-15T19:17:35.880Z,75.70
2022-12-15T19:20:23.738Z,75.70
2022-12-15T19:22:52.300Z,75.70
2022-12-15T19:25:25.720Z,75.90
2022-12-15T19:27:58.532Z,75.90
2022-12-15T19:30:29.457Z,76.00
2022-12-15T19:32:57.876Z,75.90
2022-12-15T19:35:27.162Z,76.00
2022-12-15T19:37:57.624Z,75.90
2022-12-15T19:40:29.253Z,75.90
2022-12-15T19:42:58.123Z,75.90
2022-12-15T19:45:29.316Z,76.10
2022-12-15T19:47:57.733Z,76.00
2022-12-15T19:50:28.420Z,76.00
2022-12-15T19:52:59.577Z,76.10
2022-12-15T19:55:30.452Z,76.00
2022-12-15T19:57:58.280Z,76.00
2022-12-15T20:00:27.936Z,76.20
2022-12-15T20:02:56.571Z,76.20
2022-12-15T20:05:25.958Z,76.20
2022-12-15T20:07:54.700Z,76.20
2022-12-15T20:10:31.391Z,76.20
2022-12-15T20:13:01.232Z,76.20
2022-12-15T20:15:30.405Z,76.30
2022-12-15T20:17:58.262Z,76.30
2022-12-15T20:20:28.400Z,76.50
2022-12-15T20:22:59.801Z,76.40
2022-12-15T20:25:30.728Z,76.40
2022-12-15T20:28:00.147Z,76.40
2022-12-15T20:30:32.315Z,76.40
2022-12-15T20:33:00.549Z,76.30
2022-12-15T20:35:28.450Z,76.30
2022-12-15T20:37:56.846Z,76.30
2022-12-15T20:40:26.804Z,76.40
2022-12-15T20:42:55.441Z,76.30
2022-12-15T20:45:26.431Z,76.40
2022-12-15T20:47:57.241Z,76.20
2022-12-15T20:50:32.457Z,76.20
2022-12-15T20:53:00.396Z,76.30
2022-12-15T20:55:28.650Z,76.30
2022-12-15T20:57:56.840Z,76.30
2022-12-15T21:00:24.690Z,76.40
2022-12-15T21:02:55.014Z,76.40
2022-12-15T21:05:26.116Z,76.40
2022-12-15T21:07:54.261Z,76.30
2022-12-15T21:10:22.445Z,76.50
2022-12-15T21:12:51.524Z,76.50
2022-12-15T21:15:21.771Z,76.50
2022-12-15T21:18:08.860Z,76.40
2022-12-15T21:20:42.055Z,76.60
2022-12-15T21:23:23.730Z,76.60
2022-12-15T21:25:52.645Z,76.40
2022-12-15T21:28:21.459Z,76.60
2022-12-15T21:30:50.035Z,76.80
2022-12-15T21:33:18.123Z,76.90
2022-12-15T21:35:48.744Z,76.90
2022-12-15T21:38:28.021Z,76.90
2022-12-15T21:40:59.748Z,76.80
2022-12-15T21:43:30.391Z,77.10
2022-12-15T21:45:58.295Z,76.90
2022-12-15T21:48:43.877Z,77.00
2022-12-15T21:51:16.304Z,76.90
2022-12-15T21:53:45.527Z,76.80
2022-12-15T21:56:17.322Z,77.00
2022-12-15T21:58:45.906Z,76.70
2022-12-15T22:01:15.626Z,77.10
2022-12-15T22:03:47.781Z,77.10
2022-12-15T22:06:21.144Z,77.10
2022-12-15T22:08:49.241Z,76.90
2022-12-15T22:11:22.301Z,77.10
2022-12-15T22:13:52.595Z,76.80
2022-12-15T22:16:23.363Z,77.00
2022-12-15T22:18:54.925Z,77.10
2022-12-15T22:21:24.760Z,77.10
2022-12-15T22:23:53.208Z,77.20
2022-12-15T22:26:23.545Z,77.20
2022-12-15T22:28:52.100Z,77.10
2022-12-15T22:31:20.541Z,77.30
2022-12-15T22:33:48.815Z,77.30
2022-12-15T22:36:16.620Z,77.30
2022-12-15T22:38:46.825Z,77.40
2022-12-15T22:41:20.346Z,77.30
2022-12-15T22:43:51.338Z,77.10
2022-12-15T22:46:22.121Z,77.20
2022-12-15T22:48:50.431Z,77.20
2022-12-15T22:51:19.526Z,77.40
2022-12-15T22:53:48.785Z,77.40
2022-12-15T22:56:24.607Z,77.40
2022-12-15T22:58:56.857Z,78.00
2022-12-15T23:01:25.842Z,77.20
2022-12-15T23:03:54.241Z,77.30
2022-12-15T23:06:23.631Z,77.40
2022-12-15T23:08:55.989Z,77.40
2022-12-15T23:11:39.288Z,77.40
2022-12-15T23:14:08.684Z,77.40
2022-12-15T23:16:36.636Z,77.30
2022-12-15T23:19:04.968Z,77.40
2022-12-15T23:21:33.255Z,77.40
2022-12-15T23:24:02.809Z,77.40
2022-12-15T23:26:30.630Z,77.40
2022-12-15T23:28:58.449Z,77.50
2022-12-15T23:31:26.318Z,77.40
2022-12-15T23:33:54.178Z,77.40
2022-12-15T23:36:23.024Z,77.40
2022-12-15T23:38:50.901Z,77.40
2022-12-15T23:41:20.844Z,77.40
2022-12-15T23:43:48.729Z,77.30
2022-12-15T23:46:16.568Z,77.40
2022-12-15T23:48:44.724Z,77.40
2022-12-15T23:51:14.249Z,77.50
2022-12-15T23:53:43.508Z,77.40
2022-12-15T23:56:13.646Z,77.50
2022-12-15T23:58:44.824Z,77.50
